sensor_id;sensor_type;location;lat;lon;timestamp;temperature;humidity
25050;DHT22;13046;49.814;9.918;2023-03-01T02:47:25;4.20;99.90
25050;DHT22;13046;49.814;9.918;2023-03-01T02:49:50;-0.80;99.90
25050;DHT22;13046;49.814;9.918;2023-03-01T02:57:42;-0.90;99.90
25050;DHT22;13046;49.814;9.918;2023-03-01T03:00:17;-0.90;99.90
25050;DHT22;13046;49.814;9.918;2023-03-01T03:02:52;-0.90;99.90
25050;DHT22;13046;49.814;9.918;2023-03-01T03:05:21;-0.90;99.90
25050;DHT22;13046;49.814;9.918;2023-03-01T03:07:51;-0.90;99.90
25050;DHT22;13046;49.814;9.918;2023-03-01T03:10:20;-0.80;99.90
25050;DHT22;13046;49.814;9.918;2023-03-01T04:24:06;-0.90;99.90
25050;DHT22;13046;49.814;9.918;2023-03-01T05:55:23;-0.70;99.90
25050;DHT22;13046;49.814;9.918;2023-03-01T06:02:45;-0.90;99.90
25050;DHT22;13046;49.814;9.918;2023-03-01T06:10:05;-1.00;99.90
25050;DHT22;13046;49.814;9.918;2023-03-01T06:27:08;-1.00;99.90
25050;DHT22;13046;49.814;9.918;2023-03-01T06:49:02;-1.10;99.90
25050;DHT22;13046;49.814;9.918;2023-03-01T06:51:33;-0.90;99.90
25050;DHT22;13046;49.814;9.918;2023-03-01T06:56:24;-0.90;99.90
25050;DHT22;13046;49.814;9.918;2023-03-01T07:01:16;-0.90;99.90
25050;DHT22;13046;49.814;9.918;2023-03-01T07:03:42;-0.90;99.90
25050;DHT22;13046;49.814;9.918;2023-03-01T07:11:01;-0.80;99.90
25050;DHT22;13046;49.814;9.918;2023-03-01T08:26:40;-0.80;99.90
25050;DHT22;13046;49.814;9.918;2023-03-01T08:29:06;2.00;99.90
25050;DHT22;13046;49.814;9.918;2023-03-01T08:31:37;2.10;99.90
25050;DHT22;13046;49.814;9.918;2023-03-01T08:34:06;2.30;99.90
25050;DHT22;13046;49.814;9.918;2023-03-01T08:36:35;2.50;99.90
25050;DHT22;13046;49.814;9.918;2023-03-01T08:39:03;2.40;99.90
25050;DHT22;13046;49.814;9.918;2023-03-01T08:41:29;2.60;99.90
25050;DHT22;13046;49.814;9.918;2023-03-01T08:43:55;2.50;99.90
25050;DHT22;13046;49.814;9.918;2023-03-01T08:46:29;2.60;99.90
25050;DHT22;13046;49.814;9.918;2023-03-01T08:48:55;2.90;99.90
25050;DHT22;13046;49.814;9.918;2023-03-01T08:51:22;3.10;99.90
25050;DHT22;13046;49.814;9.918;2023-03-01T08:53:48;3.00;99.90
25050;DHT22;13046;49.814;9.918;2023-03-01T08:56:15;2.70;99.90
25050;DHT22;13046;49.814;9.918;2023-03-01T08:58:47;2.80;99.90
25050;DHT22;13046;49.814;9.918;2023-03-01T09:01:15;2.70;99.90
25050;DHT22;13046;49.814;9.918;2023-03-01T09:03:42;2.70;99.90
25050;DHT22;13046;49.814;9.918;2023-03-01T09:06:09;2.90;99.90
25050;DHT22;13046;49.814;9.918;2023-03-01T09:08:38;2.80;99.90
25050;DHT22;13046;49.814;9.918;2023-03-01T09:11:05;3.10;99.90
25050;DHT22;13046;49.814;9.918;2023-03-01T09:13:31;3.60;99.90
25050;DHT22;13046;49.814;9.918;2023-03-01T09:15:58;3.90;99.90
25050;DHT22;13046;49.814;9.918;2023-03-01T09:18:24;4.10;99.90
25050;DHT22;13046;49.814;9.918;2023-03-01T09:20:49;4.10;99.90
25050;DHT22;13046;49.814;9.918;2023-03-01T09:23:15;4.00;99.90
25050;DHT22;13046;49.814;9.918;2023-03-01T09:25:41;3.90;99.90
25050;DHT22;13046;49.814;9.918;2023-03-01T09:28:06;3.90;99.90
25050;DHT22;13046;49.814;9.918;2023-03-01T09:30:32;3.90;99.90
25050;DHT22;13046;49.814;9.918;2023-03-01T09:32:58;4.20;99.90
25050;DHT22;13046;49.814;9.918;2023-03-01T09:35:24;4.20;99.90
25050;DHT22;13046;49.814;9.918;2023-03-01T09:37:51;4.10;99.90
25050;DHT22;13046;49.814;9.918;2023-03-01T09:40:23;3.80;99.90
25050;DHT22;13046;49.814;9.918;2023-03-01T09:43:01;4.10;99.90
25050;DHT22;13046;49.814;9.918;2023-03-01T09:45:33;4.50;99.90
25050;DHT22;13046;49.814;9.918;2023-03-01T09:48:00;4.60;99.90
25050;DHT22;13046;49.814;9.918;2023-03-01T09:50:33;4.70;99.90
25050;DHT22;13046;49.814;9.918;2023-03-01T09:55:38;5.40;99.90
25050;DHT22;13046;49.814;9.918;2023-03-01T09:58:29;5.20;99.90
25050;DHT22;13046;49.814;9.918;2023-03-01T10:01:03;5.10;99.90
25050;DHT22;13046;49.814;9.918;2023-03-01T10:03:39;5.20;99.90
25050;DHT22;13046;49.814;9.918;2023-03-01T10:06:19;5.00;99.90
25050;DHT22;13046;49.814;9.918;2023-03-01T10:08:58;4.90;99.90
25050;DHT22;13046;49.814;9.918;2023-03-01T10:11:31;4.50;99.90
25050;DHT22;13046;49.814;9.918;2023-03-01T10:16:43;5.10;99.90
25050;DHT22;13046;49.814;9.918;2023-03-01T10:19:23;5.10;99.90
25050;DHT22;13046;49.814;9.918;2023-03-01T10:21:51;5.60;99.90
25050;DHT22;13046;49.814;9.918;2023-03-01T10:24:18;5.70;99.90
25050;DHT22;13046;49.814;9.918;2023-03-01T10:26:56;5.70;99.90
25050;DHT22;13046;49.814;9.918;2023-03-01T10:29:26;6.00;99.90
25050;DHT22;13046;49.814;9.918;2023-03-01T10:31:55;6.20;99.90
25050;DHT22;13046;49.814;9.918;2023-03-01T10:34:31;6.50;99.90
25050;DHT22;13046;49.814;9.918;2023-03-01T10:37:15;6.50;99.90
25050;DHT22;13046;49.814;9.918;2023-03-01T10:40:06;5.80;99.90
25050;DHT22;13046;49.814;9.918;2023-03-01T10:42:46;5.30;99.90
25050;DHT22;13046;49.814;9.918;2023-03-01T10:48:04;5.60;99.90
25050;DHT22;13046;49.814;9.918;2023-03-01T10:50:30;6.10;99.90
25050;DHT22;13046;49.814;9.918;2023-03-01T10:53:03;6.50;99.90
25050;DHT22;13046;49.814;9.918;2023-03-01T10:55:37;6.70;99.90
25050;DHT22;13046;49.814;9.918;2023-03-01T10:58:11;6.70;99.90
25050;DHT22;13046;49.814;9.918;2023-03-01T11:03:18;6.10;99.90
25050;DHT22;13046;49.814;9.918;2023-03-01T11:06:01;5.70;99.90
25050;DHT22;13046;49.814;9.918;2023-03-01T11:08:37;6.10;99.90
25050;DHT22;13046;49.814;9.918;2023-03-01T11:13:59;6.90;99.90
25050;DHT22;13046;49.814;9.918;2023-03-01T11:16:34;6.70;99.90
25050;DHT22;13046;49.814;9.918;2023-03-01T11:21:39;7.20;99.90
25050;DHT22;13046;49.814;9.918;2023-03-01T11:24:11;7.50;99.90
25050;DHT22;13046;49.814;9.918;2023-03-01T11:26:41;6.90;99.90
25050;DHT22;13046;49.814;9.918;2023-03-01T11:29:16;6.80;99.90
25050;DHT22;13046;49.814;9.918;2023-03-01T11:31:45;7.20;99.90
25050;DHT22;13046;49.814;9.918;2023-03-01T11:34:15;7.70;99.90
25050;DHT22;13046;49.814;9.918;2023-03-01T11:36:54;7.30;99.90
25050;DHT22;13046;49.814;9.918;2023-03-01T11:39:47;7.40;99.90
25050;DHT22;13046;49.814;9.918;2023-03-01T11:42:28;8.00;99.90
25050;DHT22;13046;49.814;9.918;2023-03-01T11:44:55;7.60;99.90
25050;DHT22;13046;49.814;9.918;2023-03-01T11:50:40;8.30;99.90
25050;DHT22;13046;49.814;9.918;2023-03-01T11:58:23;7.70;99.90
25050;DHT22;13046;49.814;9.918;2023-03-01T12:03:53;8.10;99.90
25050;DHT22;13046;49.814;9.918;2023-03-01T12:06:56;8.00;99.90
25050;DHT22;13046;49.814;9.918;2023-03-01T12:12:36;7.90;99.90
25050;DHT22;13046;49.814;9.918;2023-03-01T12:21:40;8.30;99.90
25050;DHT22;13046;49.814;9.918;2023-03-01T12:24:32;8.30;99.90
25050;DHT22;13046;49.814;9.918;2023-03-01T12:30:15;8.60;99.90
25050;DHT22;13046;49.814;9.918;2023-03-01T12:38:50;8.80;99.90
25050;DHT22;13046;49.814;9.918;2023-03-01T12:52:11;8.80;99.90
25050;DHT22;13046;49.814;9.918;2023-03-01T12:54:39;8.80;99.90
25050;DHT22;13046;49.814;9.918;2023-03-01T12:57:22;8.80;99.90
25050;DHT22;13046;49.814;9.918;2023-03-01T13:08:59;9.00;99.90
25050;DHT22;13046;49.814;9.918;2023-03-01T13:11:27;9.60;99.90
25050;DHT22;13046;49.814;9.918;2023-03-01T13:16:54;10.00;99.90
25050;DHT22;13046;49.814;9.918;2023-03-01T13:19:28;9.50;99.90
25050;DHT22;13046;49.814;9.918;2023-03-01T13:22:32;9.40;99.90
25050;DHT22;13046;49.814;9.918;2023-03-01T13:25:11;8.80;99.90
25050;DHT22;13046;49.814;9.918;2023-03-01T13:27:38;9.20;99.90
25050;DHT22;13046;49.814;9.918;2023-03-01T13:30:12;9.60;99.90
25050;DHT22;13046;49.814;9.918;2023-03-01T13:32:50;9.30;99.90
25050;DHT22;13046;49.814;9.918;2023-03-01T13:37:45;9.00;99.90
25050;DHT22;13046;49.814;9.918;2023-03-01T13:42:53;9.90;99.90
25050;DHT22;13046;49.814;9.918;2023-03-01T13:45:21;9.90;99.90
25050;DHT22;13046;49.814;9.918;2023-03-01T13:47:54;9.90;99.90
25050;DHT22;13046;49.814;9.918;2023-03-01T13:50:35;10.20;99.90
25050;DHT22;13046;49.814;9.918;2023-03-01T13:53:05;10.20;99.90
25050;DHT22;13046;49.814;9.918;2023-03-01T13:55:41;9.70;99.90
25050;DHT22;13046;49.814;9.918;2023-03-01T13:58:50;9.80;99.90
25050;DHT22;13046;49.814;9.918;2023-03-01T14:01:30;9.70;99.90
25050;DHT22;13046;49.814;9.918;2023-03-01T14:03:56;9.90;99.90
25050;DHT22;13046;49.814;9.918;2023-03-01T14:06:27;10.00;99.90
25050;DHT22;13046;49.814;9.918;2023-03-01T14:09:22;9.90;99.90
25050;DHT22;13046;49.814;9.918;2023-03-01T14:15:02;9.70;99.90
25050;DHT22;13046;49.814;9.918;2023-03-01T14:17:43;9.70;99.90
25050;DHT22;13046;49.814;9.918;2023-03-01T14:20:24;9.70;99.90
25050;DHT22;13046;49.814;9.918;2023-03-01T14:23:00;9.90;99.90
25050;DHT22;13046;49.814;9.918;2023-03-01T14:25:35;10.40;99.90
25050;DHT22;13046;49.814;9.918;2023-03-01T14:28:29;10.20;99.90
25050;DHT22;13046;49.814;9.918;2023-03-01T14:30:57;10.20;99.90
25050;DHT22;13046;49.814;9.918;2023-03-01T14:33:27;10.40;99.90
25050;DHT22;13046;49.814;9.918;2023-03-01T14:38:42;10.30;99.90
25050;DHT22;13046;49.814;9.918;2023-03-01T14:41:17;9.70;99.90
25050;DHT22;13046;49.814;9.918;2023-03-01T14:43:51;9.80;99.90
25050;DHT22;13046;49.814;9.918;2023-03-01T14:46:32;10.00;99.90
25050;DHT22;13046;49.814;9.918;2023-03-01T14:49:22;10.30;99.90
25050;DHT22;13046;49.814;9.918;2023-03-01T14:52:00;10.20;99.90
25050;DHT22;13046;49.814;9.918;2023-03-01T14:54:35;9.60;99.90
25050;DHT22;13046;49.814;9.918;2023-03-01T14:57:03;9.50;99.90
25050;DHT22;13046;49.814;9.918;2023-03-01T14:59:29;9.40;99.90
25050;DHT22;13046;49.814;9.918;2023-03-01T15:01:57;9.40;99.90
25050;DHT22;13046;49.814;9.918;2023-03-01T15:04:24;9.30;99.90
25050;DHT22;13046;49.814;9.918;2023-03-01T15:06:54;9.20;99.90
25050;DHT22;13046;49.814;9.918;2023-03-01T15:09:21;9.30;99.90
25050;DHT22;13046;49.814;9.918;2023-03-01T15:11:50;9.50;99.90
25050;DHT22;13046;49.814;9.918;2023-03-01T15:14:37;9.50;99.90
25050;DHT22;13046;49.814;9.918;2023-03-01T15:17:04;9.60;99.90
25050;DHT22;13046;49.814;9.918;2023-03-01T15:19:30;9.60;99.90
25050;DHT22;13046;49.814;9.918;2023-03-01T15:21:56;9.90;99.90
25050;DHT22;13046;49.814;9.918;2023-03-01T15:24:26;9.90;99.90
25050;DHT22;13046;49.814;9.918;2023-03-01T15:26:56;10.00;99.90
25050;DHT22;13046;49.814;9.918;2023-03-01T15:29:25;9.90;99.90
25050;DHT22;13046;49.814;9.918;2023-03-01T15:32:34;9.60;99.90
25050;DHT22;13046;49.814;9.918;2023-03-01T15:35:31;9.50;99.90
25050;DHT22;13046;49.814;9.918;2023-03-01T15:37:48;9.50;99.90
25050;DHT22;13046;49.814;9.918;2023-03-01T15:40:25;9.20;99.90
25050;DHT22;13046;49.814;9.918;2023-03-01T15:43:00;9.30;99.90
25050;DHT22;13046;49.814;9.918;2023-03-01T15:45:28;9.40;99.90
25050;DHT22;13046;49.814;9.918;2023-03-01T15:47:56;9.40;99.90
25050;DHT22;13046;49.814;9.918;2023-03-01T15:50:36;9.20;99.90
25050;DHT22;13046;49.814;9.918;2023-03-01T15:53:10;9.00;99.90
25050;DHT22;13046;49.814;9.918;2023-03-01T15:55:37;8.80;99.90
25050;DHT22;13046;49.814;9.918;2023-03-01T15:58:13;8.60;99.90
25050;DHT22;13046;49.814;9.918;2023-03-01T16:00:41;8.50;99.90
25050;DHT22;13046;49.814;9.918;2023-03-01T16:03:09;8.40;99.90
25050;DHT22;13046;49.814;9.918;2023-03-01T16:05:37;8.20;99.90
25050;DHT22;13046;49.814;9.918;2023-03-01T16:08:04;8.10;99.90
25050;DHT22;13046;49.814;9.918;2023-03-01T16:10:32;7.90;99.90
25050;DHT22;13046;49.814;9.918;2023-03-01T16:12:59;7.90;99.90
25050;DHT22;13046;49.814;9.918;2023-03-01T16:15:30;7.80;99.90
25050;DHT22;13046;49.814;9.918;2023-03-01T16:17:57;7.70;99.90
25050;DHT22;13046;49.814;9.918;2023-03-01T16:20:26;7.60;99.90
25050;DHT22;13046;49.814;9.918;2023-03-01T16:22:53;7.50;99.90
25050;DHT22;13046;49.814;9.918;2023-03-01T16:25:20;7.40;99.90
25050;DHT22;13046;49.814;9.918;2023-03-01T16:27:48;7.40;99.90
25050;DHT22;13046;49.814;9.918;2023-03-01T16:30:16;7.30;99.90
25050;DHT22;13046;49.814;9.918;2023-03-01T16:32:45;7.30;99.90
25050;DHT22;13046;49.814;9.918;2023-03-01T16:35:14;7.20;99.90
25050;DHT22;13046;49.814;9.918;2023-03-01T16:37:40;7.10;99.90
25050;DHT22;13046;49.814;9.918;2023-03-01T16:42:41;7.00;99.90
25050;DHT22;13046;49.814;9.918;2023-03-01T16:45:08;6.90;99.90
25050;DHT22;13046;49.814;9.918;2023-03-01T16:47:34;6.90;99.90
25050;DHT22;13046;49.814;9.918;2023-03-01T16:50:00;6.80;99.90
25050;DHT22;13046;49.814;9.918;2023-03-01T16:52:25;6.80;99.90
25050;DHT22;13046;49.814;9.918;2023-03-01T16:54:51;6.80;99.90
25050;DHT22;13046;49.814;9.918;2023-03-01T16:57:17;6.60;99.90
25050;DHT22;13046;49.814;9.918;2023-03-01T16:59:43;6.60;99.90
25050;DHT22;13046;49.814;9.918;2023-03-01T17:02:11;6.50;99.90
25050;DHT22;13046;49.814;9.918;2023-03-01T17:04:38;6.40;99.90
25050;DHT22;13046;49.814;9.918;2023-03-01T17:07:04;6.30;99.90
25050;DHT22;13046;49.814;9.918;2023-03-01T17:09:29;6.30;99.90
25050;DHT22;13046;49.814;9.918;2023-03-01T17:11:55;6.20;99.90
25050;DHT22;13046;49.814;9.918;2023-03-01T17:14:21;6.20;99.90
25050;DHT22;13046;49.814;9.918;2023-03-01T17:16:46;6.10;99.90
25050;DHT22;13046;49.814;9.918;2023-03-01T17:19:12;6.00;99.90
25050;DHT22;13046;49.814;9.918;2023-03-01T17:21:43;5.90;99.90
25050;DHT22;13046;49.814;9.918;2023-03-01T17:24:09;5.80;99.90
25050;DHT22;13046;49.814;9.918;2023-03-01T17:26:35;5.80;99.90
25050;DHT22;13046;49.814;9.918;2023-03-01T17:29:02;5.80;99.90
25050;DHT22;13046;49.814;9.918;2023-03-01T17:31:30;5.70;99.90
25050;DHT22;13046;49.814;9.918;2023-03-01T17:33:55;5.70;99.90
25050;DHT22;13046;49.814;9.918;2023-03-01T17:36:21;5.70;99.90
25050;DHT22;13046;49.814;9.918;2023-03-01T17:38:47;5.70;99.90
25050;DHT22;13046;49.814;9.918;2023-03-01T17:41:14;5.60;99.90
25050;DHT22;13046;49.814;9.918;2023-03-01T17:43:42;5.50;99.90
25050;DHT22;13046;49.814;9.918;2023-03-01T17:46:07;5.50;99.90
25050;DHT22;13046;49.814;9.918;2023-03-01T17:48:34;5.50;99.90
25050;DHT22;13046;49.814;9.918;2023-03-01T17:51:00;5.40;99.90
25050;DHT22;13046;49.814;9.918;2023-03-01T17:53:29;5.30;99.90
25050;DHT22;13046;49.814;9.918;2023-03-01T17:56:00;5.30;99.90
25050;DHT22;13046;49.814;9.918;2023-03-01T18:08:12;5.30;99.90
25050;DHT22;13046;49.814;9.918;2023-03-01T18:10:38;5.10;99.90
25050;DHT22;13046;49.814;9.918;2023-03-01T18:13:04;5.00;99.90
25050;DHT22;13046;49.814;9.918;2023-03-01T18:15:30;5.00;99.90
